Terminal Aerodrome Forecast
Issued by NWS

Home | Current Version | Previous Version | Text Only | Print | Product List | Glossary On
Versions: 1 2 3 4 5 6 7 8 9 10 11 12 13 14 15 16 17 18 19 20 21 22 23 24 25 26 27 28 29 30 31 32
000
FTUS41 KOKX 260834 AAA
TAFHPN
TAF AMD
KHPN 260834Z 2609/2706 30006KT P6SM SKC
      TEMPO 2609/2613 3SM BR SCT250
     FM261300 30008KT P6SM SCT250
     FM261600 30010KT P6SM SCT050 SCT250
     FM261900 28012G18KT P6SM SCT050 SCT250
     FM262300 33005KT P6SM SCT250
      AMD NOT SKED=

USA.gov is the U.S. government's official web portal to all federal, state and local government web resources and services.